CDT,Max TemperatureF,Mean TemperatureF,Min TemperatureF,Max Dew PointF,MeanDew PointF,Min DewpointF,Max Humidity, Mean Humidity, Min Humidity, Max Sea Level PressureIn, Mean Sea Level PressureIn, Min Sea Level PressureIn, Max VisibilityMiles, Mean VisibilityMiles, Min VisibilityMiles, Max Wind SpeedMPH, Mean Wind SpeedMPH, Max Gust SpeedMPH,PrecipitationIn, CloudCover, Events, WindDirDegrees
2013-10-1,73,59,45,49,41,33,80,53,25,30.01,29.91,29.70,10,10,10,20,7,24,0.00,0,,79
2013-10-2,81,64,47,61,49,42,93,66,39,29.93,29.85,29.76,10,10,10,26,5,35,0.00,0,,79
2013-10-3,57,54,50,56,50,43,96,79,61,29.83,29.79,29.73,10,6,1,18,9,23,T,7,Rain,40
2013-10-4,57,47,37,55,45,28,100,83,65,29.99,29.78,29.64,10,6,1,37,19,46,0.03,7,Rain-Snow,320
2013-10-5,43,40,36,31,29,28,76,67,57,30.09,30.03,29.99,10,9,1,36,25,49,T,7,Rain-Snow,299
2013-10-6,66,50,33,34,31,28,82,55,28,30.17,30.10,30.06,10,10,10,28,13,36,0.00,1,,314
2013-10-7,79,55,30,44,37,29,100,62,24,30.15,30.03,29.87,10,10,10,17,7,22,0.00,0,,237
2013-10-8,79,60,41,43,40,37,86,56,25,29.85,29.77,29.69,10,10,10,20,9,25,0.00,1,,144
2013-10-9,75,59,42,46,43,38,83,58,33,29.87,29.79,29.72,10,10,10,15,6,21,0.00,0,,126
2013-10-10,78,61,43,55,48,41,96,67,38,29.85,29.71,29.49,10,9,2,37,12,51,0.34,2,Rain-Thunderstorm,147
2013-10-11,59,48,37,51,42,36,83,67,51,30.01,29.67,29.42,10,10,10,35,17,44,0.00,4,Rain,256
2013-10-12,62,46,30,42,35,29,92,64,36,30.27,30.19,30.04,10,10,10,13,4,15,T,3,,292
2013-10-13,65,51,37,43,37,33,86,59,31,30.33,30.22,30.08,10,10,10,29,12,40,0.02,5,Rain-Thunderstorm,125
2013-10-14,67,55,42,57,49,35,93,82,70,30.06,29.82,29.58,10,6,0,37,16,46,1.21,8,Fog-Rain-Thunderstorm,158
2013-10-15,46,38,29,35,32,27,85,73,60,30.25,30.14,29.99,10,10,10,31,19,41,0.00,7,,314
2013-10-16,54,40,25,35,30,24,96,70,44,30.24,30.12,30.01,10,10,6,13,4,17,0.00,0,,296
2013-10-17,51,38,25,36,29,22,92,71,50,30.17,30.09,30.00,10,10,10,23,9,31,0.00,2,,337
2013-10-18,50,39,28,34,29,24,92,71,49,30.20,30.15,30.06,10,10,10,20,7,25,T,4,Rain,311
2013-10-19,64,46,27,35,31,24,92,63,34,30.07,29.95,29.85,10,10,10,26,8,32,0.00,2,,285
2013-10-20,61,45,29,41,35,29,92,68,43,30.12,29.92,29.80,10,10,10,28,8,35,T,5,,320
2013-10-21,59,44,28,42,34,27,92,66,40,30.14,30.07,29.98,10,10,10,31,8,37,T,4,,291
2013-10-22,60,49,38,41,37,34,92,68,44,30.12,30.07,30.00,10,10,10,25,8,31,0.00,4,,333
2013-10-23,65,49,32,43,36,31,92,65,37,30.24,30.11,30.05,10,10,10,26,8,35,0.00,2,,8
2013-10-24,47,43,38,37,35,32,79,72,65,30.41,30.34,30.25,10,10,10,15,7,20,0.00,7,,140
2013-10-25,61,47,32,40,34,30,92,68,44,30.35,30.21,30.06,10,10,10,21,7,26,0.00,0,,196
2013-10-26,62,47,32,38,31,28,92,61,29,30.33,30.22,30.14,10,10,10,15,6,20,0.00,0,,325
2013-10-27,73,50,27,40,34,27,89,57,25,30.10,29.92,29.78,10,10,7,13,5,18,0.00,0,,262
2013-10-28,52,43,34,36,33,28,82,67,52,30.17,30.08,29.91,10,9,2,23,15,31,0.01,5,Rain,63
2013-10-29,38,36,33,35,33,30,96,91,85,30.14,30.07,30.01,10,6,2,17,9,23,0.05,8,Rain,23
2013-10-30,50,39,27,38,33,28,100,81,61,30.05,29.88,29.77,10,5,0,10,3,13,0.00,6,Fog,154
2013-10-31,59,42,24,36,28,24,100,67,33,29.80,29.74,29.65,10,7,0,35,12,43,0.00,2,Fog,308